sensor_id;sensor_type;location;lat;lon;timestamp;pressure;altitude;pressure_sealevel;temperature;humidity
64551;BME280;50945;44.472;-123.352;2023-05-16T00:00:59;100275.22;;;25.89;43.14
64551;BME280;50945;44.472;-123.352;2023-05-16T00:03:26;100295.53;;;25.66;43.16
64551;BME280;50945;44.472;-123.352;2023-05-16T00:05:52;100295.38;;;25.26;44.01
64551;BME280;50945;44.472;-123.352;2023-05-16T00:08:18;100295.97;;;24.92;44.45
64551;BME280;50945;44.472;-123.352;2023-05-16T00:10:45;100309.72;;;24.68;45.02
64551;BME280;50945;44.472;-123.352;2023-05-16T00:13:10;100299.34;;;24.43;46.00
64551;BME280;50945;44.472;-123.352;2023-05-16T00:15:38;100294.56;;;24.28;45.31
64551;BME280;50945;44.472;-123.352;2023-05-16T00:18:04;100303.22;;;24.21;45.55
64551;BME280;50945;44.472;-123.352;2023-05-16T00:20:31;100303.75;;;24.03;45.44
64551;BME280;50945;44.472;-123.352;2023-05-16T00:22:57;100300.91;;;23.87;47.51
64551;BME280;50945;44.472;-123.352;2023-05-16T00:25:26;100305.38;;;23.83;45.42
64551;BME280;50945;44.472;-123.352;2023-05-16T00:27:52;100310.53;;;23.59;45.87
64551;BME280;50945;44.472;-123.352;2023-05-16T00:30:18;100307.59;;;23.23;47.59
64551;BME280;50945;44.472;-123.352;2023-05-16T00:32:44;100313.03;;;23.03;46.79
64551;BME280;50945;44.472;-123.352;2023-05-16T00:35:10;100307.88;;;22.84;47.22
64551;BME280;50945;44.472;-123.352;2023-05-16T00:37:37;100313.59;;;22.67;47.72
64551;BME280;50945;44.472;-123.352;2023-05-16T00:40:04;100317.66;;;22.54;48.19
64551;BME280;50945;44.472;-123.352;2023-05-16T00:42:32;100325.38;;;22.42;48.12
64551;BME280;50945;44.472;-123.352;2023-05-16T00:44:58;100324.34;;;22.26;49.59
64551;BME280;50945;44.472;-123.352;2023-05-16T00:47:25;100334.25;;;22.17;48.46
64551;BME280;50945;44.472;-123.352;2023-05-16T00:49:50;100334.00;;;21.91;49.35
64551;BME280;50945;44.472;-123.352;2023-05-16T00:52:17;100329.09;;;21.76;48.81
64551;BME280;50945;44.472;-123.352;2023-05-16T00:54:43;100340.84;;;21.61;49.36
64551;BME280;50945;44.472;-123.352;2023-05-16T00:57:09;100338.94;;;21.45;49.92
64551;BME280;50945;44.472;-123.352;2023-05-16T00:59:37;100343.13;;;21.25;50.18
64551;BME280;50945;44.472;-123.352;2023-05-16T01:02:04;100343.47;;;21.12;50.06
64551;BME280;50945;44.472;-123.352;2023-05-16T01:04:31;100350.16;;;20.94;50.64
64551;BME280;50945;44.472;-123.352;2023-05-16T01:06:58;100346.28;;;20.78;51.03
64551;BME280;50945;44.472;-123.352;2023-05-16T01:09:25;100357.84;;;20.70;51.39
64551;BME280;50945;44.472;-123.352;2023-05-16T01:12:01;100359.06;;;20.62;51.62
64551;BME280;50945;44.472;-123.352;2023-05-16T01:17:56;100365.91;;;20.26;54.33
64551;BME280;50945;44.472;-123.352;2023-05-16T01:23:03;100362.03;;;19.98;53.04
64551;BME280;50945;44.472;-123.352;2023-05-16T01:28:05;100374.63;;;19.77;53.50
64551;BME280;50945;44.472;-123.352;2023-05-16T01:30:38;100376.66;;;19.70;53.79
64551;BME280;50945;44.472;-123.352;2023-05-16T01:33:04;100377.91;;;19.62;53.92
64551;BME280;50945;44.472;-123.352;2023-05-16T01:35:31;100388.53;;;19.53;54.12
64551;BME280;50945;44.472;-123.352;2023-05-16T01:38:17;100379.59;;;19.40;54.40
64551;BME280;50945;44.472;-123.352;2023-05-16T01:41:07;100384.81;;;19.24;56.33
64551;BME280;50945;44.472;-123.352;2023-05-16T01:43:59;100386.63;;;19.07;55.48
64551;BME280;50945;44.472;-123.352;2023-05-16T01:46:30;100384.66;;;18.95;54.77
64551;BME280;50945;44.472;-123.352;2023-05-16T01:49:15;100389.97;;;18.85;55.85
64551;BME280;50945;44.472;-123.352;2023-05-16T01:51:45;100395.59;;;18.78;55.45
64551;BME280;50945;44.472;-123.352;2023-05-16T01:54:17;100393.16;;;18.70;55.66
64551;BME280;50945;44.472;-123.352;2023-05-16T01:56:52;100395.41;;;18.61;55.60
64551;BME280;50945;44.472;-123.352;2023-05-16T01:59:23;100408.88;;;18.58;55.89
64551;BME280;50945;44.472;-123.352;2023-05-16T02:01:53;100416.59;;;18.56;55.90
64551;BME280;50945;44.472;-123.352;2023-05-16T02:04:20;100420.09;;;18.51;55.68
64551;BME280;50945;44.472;-123.352;2023-05-16T02:06:47;100424.28;;;18.54;55.88
64551;BME280;50945;44.472;-123.352;2023-05-16T02:09:13;100426.22;;;18.53;55.85
64551;BME280;50945;44.472;-123.352;2023-05-16T02:11:40;100428.03;;;18.48;56.06
64551;BME280;50945;44.472;-123.352;2023-05-16T02:14:06;100428.72;;;18.43;56.19
64551;BME280;50945;44.472;-123.352;2023-05-16T02:16:33;100434.34;;;18.36;56.37
64551;BME280;50945;44.472;-123.352;2023-05-16T02:18:59;100430.59;;;18.31;56.70
64551;BME280;50945;44.472;-123.352;2023-05-16T02:21:25;100437.31;;;18.23;56.79
64551;BME280;50945;44.472;-123.352;2023-05-16T02:23:51;100441.44;;;18.14;57.29
64551;BME280;50945;44.472;-123.352;2023-05-16T02:26:18;100447.31;;;18.05;57.20
64551;BME280;50945;44.472;-123.352;2023-05-16T02:28:44;100449.16;;;17.93;57.59
64551;BME280;50945;44.472;-123.352;2023-05-16T02:31:10;100447.31;;;17.87;57.63
64551;BME280;50945;44.472;-123.352;2023-05-16T02:33:36;100448.66;;;17.78;57.74
64551;BME280;50945;44.472;-123.352;2023-05-16T02:36:03;100449.59;;;17.72;58.32
64551;BME280;50945;44.472;-123.352;2023-05-16T02:38:29;100452.19;;;17.66;58.65
64551;BME280;50945;44.472;-123.352;2023-05-16T02:40:55;100451.66;;;17.58;59.01
64551;BME280;50945;44.472;-123.352;2023-05-16T02:43:22;100462.81;;;17.44;59.56
64551;BME280;50945;44.472;-123.352;2023-05-16T02:45:49;100468.03;;;17.34;59.81
64551;BME280;50945;44.472;-123.352;2023-05-16T02:48:16;100470.31;;;17.19;59.88
64551;BME280;50945;44.472;-123.352;2023-05-16T02:50:42;100473.59;;;17.09;60.28
64551;BME280;50945;44.472;-123.352;2023-05-16T02:53:08;100476.00;;;16.99;60.71
64551;BME280;50945;44.472;-123.352;2023-05-16T02:55:35;100478.00;;;16.85;59.88
64551;BME280;50945;44.472;-123.352;2023-05-16T02:58:01;100482.28;;;16.74;61.68
64551;BME280;50945;44.472;-123.352;2023-05-16T03:00:27;100474.94;;;16.61;61.96
64551;BME280;50945;44.472;-123.352;2023-05-16T03:02:53;100492.81;;;16.52;62.48
64551;BME280;50945;44.472;-123.352;2023-05-16T03:05:20;100491.16;;;16.44;62.61
64551;BME280;50945;44.472;-123.352;2023-05-16T03:07:48;100487.81;;;16.35;62.44
64551;BME280;50945;44.472;-123.352;2023-05-16T03:10:18;100496.34;;;16.27;63.38
64551;BME280;50945;44.472;-123.352;2023-05-16T03:12:44;100504.25;;;16.17;63.13
64551;BME280;50945;44.472;-123.352;2023-05-16T03:15:12;100507.63;;;16.12;62.70
64551;BME280;50945;44.472;-123.352;2023-05-16T03:17:41;100507.00;;;16.10;63.13
64551;BME280;50945;44.472;-123.352;2023-05-16T03:20:26;100509.56;;;16.05;63.25
64551;BME280;50945;44.472;-123.352;2023-05-16T03:23:13;100520.19;;;16.02;65.14
64551;BME280;50945;44.472;-123.352;2023-05-16T03:25:40;100518.06;;;15.97;63.44
64551;BME280;50945;44.472;-123.352;2023-05-16T03:28:08;100520.19;;;15.95;62.98
64551;BME280;50945;44.472;-123.352;2023-05-16T03:30:34;100528.06;;;15.91;63.37
64551;BME280;50945;44.472;-123.352;2023-05-16T03:33:00;100535.69;;;15.89;65.47
64551;BME280;50945;44.472;-123.352;2023-05-16T03:35:29;100534.03;;;15.88;63.51
64551;BME280;50945;44.472;-123.352;2023-05-16T03:37:55;100545.25;;;15.87;63.31
64551;BME280;50945;44.472;-123.352;2023-05-16T03:40:22;100543.75;;;15.84;63.34
64551;BME280;50945;44.472;-123.352;2023-05-16T03:42:48;100555.66;;;15.85;63.33
64551;BME280;50945;44.472;-123.352;2023-05-16T03:45:15;100566.03;;;15.83;63.60
64551;BME280;50945;44.472;-123.352;2023-05-16T03:47:41;100558.84;;;15.82;63.85
64551;BME280;50945;44.472;-123.352;2023-05-16T03:50:08;100568.16;;;15.81;63.51
64551;BME280;50945;44.472;-123.352;2023-05-16T03:52:35;100566.69;;;15.78;63.57
64551;BME280;50945;44.472;-123.352;2023-05-16T03:55:01;100574.53;;;15.74;68.46
64551;BME280;50945;44.472;-123.352;2023-05-16T03:57:31;100578.72;;;15.70;63.80
64551;BME280;50945;44.472;-123.352;2023-05-16T03:59:58;100588.28;;;15.68;63.53
64551;BME280;50945;44.472;-123.352;2023-05-16T04:02:25;100594.00;;;15.66;63.66
64551;BME280;50945;44.472;-123.352;2023-05-16T04:04:51;100588.69;;;15.65;64.22
64551;BME280;50945;44.472;-123.352;2023-05-16T04:07:18;100599.09;;;15.63;64.38
64551;BME280;50945;44.472;-123.352;2023-05-16T04:09:44;100603.97;;;15.61;64.49
64551;BME280;50945;44.472;-123.352;2023-05-16T04:12:10;100610.09;;;15.56;64.53
64551;BME280;50945;44.472;-123.352;2023-05-16T04:14:37;100609.88;;;15.51;64.08
64551;BME280;50945;44.472;-123.352;2023-05-16T04:17:03;100617.28;;;15.44;64.33
64551;BME280;50945;44.472;-123.352;2023-05-16T04:19:31;100608.41;;;15.35;64.80
64551;BME280;50945;44.472;-123.352;2023-05-16T04:22:00;100623.22;;;15.27;64.80
64551;BME280;50945;44.472;-123.352;2023-05-16T04:24:26;100633.16;;;15.21;65.34
64551;BME280;50945;44.472;-123.352;2023-05-16T04:26:54;100639.94;;;15.19;64.98
64551;BME280;50945;44.472;-123.352;2023-05-16T04:29:23;100647.34;;;15.18;65.29
64551;BME280;50945;44.472;-123.352;2023-05-16T04:31:49;100657.09;;;15.14;65.12
64551;BME280;50945;44.472;-123.352;2023-05-16T04:34:15;100656.00;;;15.09;65.94
64551;BME280;50945;44.472;-123.352;2023-05-16T04:36:41;100663.84;;;15.05;65.31
64551;BME280;50945;44.472;-123.352;2023-05-16T04:39:07;100662.78;;;14.99;65.94
64551;BME280;50945;44.472;-123.352;2023-05-16T04:41:34;100664.41;;;14.94;65.35
64551;BME280;50945;44.472;-123.352;2023-05-16T04:44:04;100663.34;;;14.88;66.31
64551;BME280;50945;44.472;-123.352;2023-05-16T04:46:33;100666.28;;;14.80;66.25
64551;BME280;50945;44.472;-123.352;2023-05-16T04:48:59;100674.31;;;14.75;65.94
64551;BME280;50945;44.472;-123.352;2023-05-16T04:51:26;100673.44;;;14.68;66.18
64551;BME280;50945;44.472;-123.352;2023-05-16T04:53:53;100679.28;;;14.58;66.86
64551;BME280;50945;44.472;-123.352;2023-05-16T04:56:22;100694.88;;;14.51;66.52
64551;BME280;50945;44.472;-123.352;2023-05-16T04:58:48;100697.78;;;14.42;67.08
64551;BME280;50945;44.472;-123.352;2023-05-16T05:01:15;100695.00;;;14.36;67.18
64551;BME280;50945;44.472;-123.352;2023-05-16T05:03:41;100699.41;;;14.30;67.19
64551;BME280;50945;44.472;-123.352;2023-05-16T05:06:09;100707.59;;;14.23;67.37
64551;BME280;50945;44.472;-123.352;2023-05-16T05:08:35;100711.13;;;14.17;67.21
64551;BME280;50945;44.472;-123.352;2023-05-16T05:11:02;100715.53;;;14.12;67.79
64551;BME280;50945;44.472;-123.352;2023-05-16T05:13:28;100717.00;;;14.07;68.01
64551;BME280;50945;44.472;-123.352;2023-05-16T05:15:54;100721.41;;;14.02;67.93
64551;BME280;50945;44.472;-123.352;2023-05-16T05:18:22;100718.19;;;13.98;68.22
64551;BME280;50945;44.472;-123.352;2023-05-16T05:20:49;100713.09;;;13.95;68.38
64551;BME280;50945;44.472;-123.352;2023-05-16T05:23:19;100721.53;;;13.94;68.28
64551;BME280;50945;44.472;-123.352;2023-05-16T05:25:49;100711.81;;;13.91;68.68
64551;BME280;50945;44.472;-123.352;2023-05-16T05:28:14;100716.84;;;13.87;73.93
64551;BME280;50945;44.472;-123.352;2023-05-16T05:30:40;100709.19;;;13.83;72.17
64551;BME280;50945;44.472;-123.352;2023-05-16T05:33:06;100717.81;;;13.80;70.86
64551;BME280;50945;44.472;-123.352;2023-05-16T05:35:38;100726.44;;;13.77;67.73
64551;BME280;50945;44.472;-123.352;2023-05-16T05:38:04;100716.69;;;13.74;68.01
64551;BME280;50945;44.472;-123.352;2023-05-16T05:40:30;100710.56;;;13.72;68.40
64551;BME280;50945;44.472;-123.352;2023-05-16T05:42:57;100713.69;;;13.69;68.25
64551;BME280;50945;44.472;-123.352;2023-05-16T05:45:24;100712.41;;;13.65;68.85
64551;BME280;50945;44.472;-123.352;2023-05-16T05:47:50;100719.78;;;13.64;68.86
64551;BME280;50945;44.472;-123.352;2023-05-16T05:50:16;100713.63;;;13.62;69.27
64551;BME280;50945;44.472;-123.352;2023-05-16T05:52:44;100718.28;;;13.62;69.25
64551;BME280;50945;44.472;-123.352;2023-05-16T05:55:11;100711.94;;;13.61;69.46
64551;BME280;50945;44.472;-123.352;2023-05-16T05:57:37;100706.63;;;13.60;69.63
64551;BME280;50945;44.472;-123.352;2023-05-16T06:00:05;100707.66;;;13.59;69.30
64551;BME280;50945;44.472;-123.352;2023-05-16T06:02:32;100709.56;;;13.58;69.64
64551;BME280;50945;44.472;-123.352;2023-05-16T06:04:58;100718.47;;;13.60;69.71
64551;BME280;50945;44.472;-123.352;2023-05-16T06:07:24;100712.13;;;13.60;69.92
64551;BME280;50945;44.472;-123.352;2023-05-16T06:09:51;100710.41;;;13.59;69.99
64551;BME280;50945;44.472;-123.352;2023-05-16T06:12:18;100713.16;;;13.59;69.92
64551;BME280;50945;44.472;-123.352;2023-05-16T06:14:45;100706.81;;;13.58;69.63
64551;BME280;50945;44.472;-123.352;2023-05-16T06:17:12;100714.22;;;13.58;70.33
64551;BME280;50945;44.472;-123.352;2023-05-16T06:19:38;100717.81;;;13.58;70.42
64551;BME280;50945;44.472;-123.352;2023-05-16T06:22:05;100713.16;;;13.59;70.70
64551;BME280;50945;44.472;-123.352;2023-05-16T06:24:32;100713.16;;;13.59;70.57
64551;BME280;50945;44.472;-123.352;2023-05-16T06:26:58;100720.38;;;13.60;70.20
64551;BME280;50945;44.472;-123.352;2023-05-16T06:29:24;100722.47;;;13.58;70.70
64551;BME280;50945;44.472;-123.352;2023-05-16T06:31:50;100723.13;;;13.60;70.79
64551;BME280;50945;44.472;-123.352;2023-05-16T06:34:19;100732.84;;;13.62;70.70
64551;BME280;50945;44.472;-123.352;2023-05-16T06:36:52;100726.50;;;13.62;70.79
64551;BME280;50945;44.472;-123.352;2023-05-16T06:39:19;100724.84;;;13.61;70.84
64551;BME280;50945;44.472;-123.352;2023-05-16T06:41:45;100729.44;;;13.60;70.61
64551;BME280;50945;44.472;-123.352;2023-05-16T06:44:11;100724.56;;;13.56;70.68
64551;BME280;50945;44.472;-123.352;2023-05-16T06:46:37;100724.94;;;13.53;70.89
64551;BME280;50945;44.472;-123.352;2023-05-16T06:49:03;100729.97;;;13.49;71.09
64551;BME280;50945;44.472;-123.352;2023-05-16T06:51:30;100730.38;;;13.46;71.21
64551;BME280;50945;44.472;-123.352;2023-05-16T06:53:56;100738.59;;;13.46;71.43
64551;BME280;50945;44.472;-123.352;2023-05-16T06:56:23;100736.22;;;13.43;71.23
64551;BME280;50945;44.472;-123.352;2023-05-16T06:58:50;100736.44;;;13.41;71.17
64551;BME280;50945;44.472;-123.352;2023-05-16T07:01:17;100737.69;;;13.39;71.34
64551;BME280;50945;44.472;-123.352;2023-05-16T07:03:43;100733.44;;;13.36;70.59
64551;BME280;50945;44.472;-123.352;2023-05-16T07:06:09;100739.97;;;13.35;70.96
64551;BME280;50945;44.472;-123.352;2023-05-16T07:08:36;100739.66;;;13.30;71.38
64551;BME280;50945;44.472;-123.352;2023-05-16T07:11:02;100733.50;;;13.28;78.03
64551;BME280;50945;44.472;-123.352;2023-05-16T07:13:28;100747.44;;;13.26;77.11
64551;BME280;50945;44.472;-123.352;2023-05-16T07:15:54;100742.78;;;13.27;71.00
64551;BME280;50945;44.472;-123.352;2023-05-16T07:18:20;100747.25;;;13.28;71.35
64551;BME280;50945;44.472;-123.352;2023-05-16T07:20:46;100744.31;;;13.29;71.75
64551;BME280;50945;44.472;-123.352;2023-05-16T07:23:13;100733.81;;;13.33;71.66
64551;BME280;50945;44.472;-123.352;2023-05-16T07:25:40;100735.13;;;13.37;71.52
64551;BME280;50945;44.472;-123.352;2023-05-16T07:28:06;100728.78;;;13.37;71.77
64551;BME280;50945;44.472;-123.352;2023-05-16T07:30:33;100735.59;;;13.41;71.99
64551;BME280;50945;44.472;-123.352;2023-05-16T07:32:59;100728.00;;;13.43;71.46
64551;BME280;50945;44.472;-123.352;2023-05-16T07:35:25;100725.06;;;13.44;71.69
64551;BME280;50945;44.472;-123.352;2023-05-16T07:37:52;100728.88;;;13.43;72.08
64551;BME280;50945;44.472;-123.352;2023-05-16T07:40:18;100732.25;;;13.45;72.11
64551;BME280;50945;44.472;-123.352;2023-05-16T07:42:45;100735.19;;;13.44;72.02
64551;BME280;50945;44.472;-123.352;2023-05-16T07:45:11;100738.97;;;13.43;72.21
64551;BME280;50945;44.472;-123.352;2023-05-16T07:47:38;100738.13;;;13.42;72.68
64551;BME280;50945;44.472;-123.352;2023-05-16T07:50:04;100735.31;;;13.36;72.39
64551;BME280;50945;44.472;-123.352;2023-05-16T07:52:30;100739.66;;;13.30;79.20
64551;BME280;50945;44.472;-123.352;2023-05-16T07:54:56;100738.06;;;13.21;80.52
64551;BME280;50945;44.472;-123.352;2023-05-16T07:57:23;100745.47;;;13.20;73.07
64551;BME280;50945;44.472;-123.352;2023-05-16T07:59:49;100745.47;;;13.20;72.42
64551;BME280;50945;44.472;-123.352;2023-05-16T08:02:16;100743.94;;;13.18;72.55
64551;BME280;50945;44.472;-123.352;2023-05-16T08:04:44;100740.53;;;13.16;73.03
64551;BME280;50945;44.472;-123.352;2023-05-16T08:07:10;100740.53;;;13.16;73.07
64551;BME280;50945;44.472;-123.352;2023-05-16T08:09:37;100739.22;;;13.11;73.09
64551;BME280;50945;44.472;-123.352;2023-05-16T08:12:03;100741.97;;;13.11;73.27
64551;BME280;50945;44.472;-123.352;2023-05-16T08:14:30;100740.44;;;13.09;73.31
64551;BME280;50945;44.472;-123.352;2023-05-16T08:17:00;100736.13;;;13.00;73.57
64551;BME280;50945;44.472;-123.352;2023-05-16T08:19:26;100729.31;;;12.96;73.75
64551;BME280;50945;44.472;-123.352;2023-05-16T08:21:54;100726.94;;;12.92;74.01
64551;BME280;50945;44.472;-123.352;2023-05-16T08:24:20;100732.81;;;12.89;80.91
64551;BME280;50945;44.472;-123.352;2023-05-16T08:26:46;100729.59;;;12.86;81.63
64551;BME280;50945;44.472;-123.352;2023-05-16T08:29:12;100739.91;;;12.84;74.32
64551;BME280;50945;44.472;-123.352;2023-05-16T08:31:39;100733.22;;;12.86;73.68
64551;BME280;50945;44.472;-123.352;2023-05-16T08:34:05;100725.47;;;12.90;73.99
64551;BME280;50945;44.472;-123.352;2023-05-16T08:36:31;100728.19;;;12.90;74.00
64551;BME280;50945;44.472;-123.352;2023-05-16T08:38:59;100721.00;;;12.89;73.54
64551;BME280;50945;44.472;-123.352;2023-05-16T08:41:25;100726.00;;;12.85;73.97
64551;BME280;50945;44.472;-123.352;2023-05-16T08:43:51;100736.34;;;12.83;74.18
64551;BME280;50945;44.472;-123.352;2023-05-16T08:46:21;100732.06;;;12.81;74.29
64551;BME280;50945;44.472;-123.352;2023-05-16T08:48:51;100728.66;;;12.79;74.36
64551;BME280;50945;44.472;-123.352;2023-05-16T08:51:19;100727.81;;;12.78;74.88
64551;BME280;50945;44.472;-123.352;2023-05-16T08:53:53;100719.97;;;12.75;75.14
64551;BME280;50945;44.472;-123.352;2023-05-16T08:56:22;100719.31;;;12.73;74.73
64551;BME280;50945;44.472;-123.352;2023-05-16T08:58:49;100720.09;;;12.67;74.71
64551;BME280;50945;44.472;-123.352;2023-05-16T09:01:21;100716.19;;;12.61;74.31
64551;BME280;50945;44.472;-123.352;2023-05-16T09:03:51;100723.28;;;12.55;75.19
64551;BME280;50945;44.472;-123.352;2023-05-16T09:06:17;100713.38;;;12.54;75.29
64551;BME280;50945;44.472;-123.352;2023-05-16T09:08:44;100718.66;;;12.56;74.99
64551;BME280;50945;44.472;-123.352;2023-05-16T09:11:11;100711.94;;;12.59;75.22
64551;BME280;50945;44.472;-123.352;2023-05-16T09:13:38;100707.28;;;12.59;74.96
64551;BME280;50945;44.472;-123.352;2023-05-16T09:16:12;100709.84;;;12.61;75.53
64551;BME280;50945;44.472;-123.352;2023-05-16T09:18:39;100709.00;;;12.60;74.77
64551;BME280;50945;44.472;-123.352;2023-05-16T09:21:09;100705.63;;;12.58;75.02
64551;BME280;50945;44.472;-123.352;2023-05-16T09:23:36;100708.34;;;12.58;75.43
64551;BME280;50945;44.472;-123.352;2023-05-16T09:26:02;100712.31;;;12.55;82.59
64551;BME280;50945;44.472;-123.352;2023-05-16T09:28:29;100708.25;;;12.51;75.48
64551;BME280;50945;44.472;-123.352;2023-05-16T09:30:56;100712.03;;;12.50;75.42
64551;BME280;50945;44.472;-123.352;2023-05-16T09:33:28;100710.16;;;12.51;75.43
64551;BME280;50945;44.472;-123.352;2023-05-16T09:35:56;100712.91;;;12.51;75.24
64551;BME280;50945;44.472;-123.352;2023-05-16T09:38:23;100706.06;;;12.47;75.41
64551;BME280;50945;44.472;-123.352;2023-05-16T09:40:52;100707.50;;;12.43;75.71
64551;BME280;50945;44.472;-123.352;2023-05-16T09:43:24;100710.41;;;12.41;75.54
64551;BME280;50945;44.472;-123.352;2023-05-16T09:45:51;100716.47;;;12.36;75.71
64551;BME280;50945;44.472;-123.352;2023-05-16T09:48:19;100712.22;;;12.34;75.87
64551;BME280;50945;44.472;-123.352;2023-05-16T09:50:52;100720.63;;;12.32;76.42
64551;BME280;50945;44.472;-123.352;2023-05-16T09:53:31;100733.84;;;12.29;77.15
64551;BME280;50945;44.472;-123.352;2023-05-16T09:58:30;100731.00;;;12.22;76.25
64551;BME280;50945;44.472;-123.352;2023-05-16T10:00:57;100733.94;;;12.21;76.17
64551;BME280;50945;44.472;-123.352;2023-05-16T10:03:25;100731.38;;;12.19;75.93
64551;BME280;50945;44.472;-123.352;2023-05-16T10:05:52;100727.78;;;12.18;76.04
64551;BME280;50945;44.472;-123.352;2023-05-16T10:08:24;100733.00;;;12.13;76.44
64551;BME280;50945;44.472;-123.352;2023-05-16T10:10:55;100729.94;;;12.08;76.74
64551;BME280;50945;44.472;-123.352;2023-05-16T10:13:29;100737.13;;;12.09;77.17
64551;BME280;50945;44.472;-123.352;2023-05-16T10:15:58;100746.00;;;12.11;76.69
64551;BME280;50945;44.472;-123.352;2023-05-16T10:18:31;100738.66;;;12.12;76.75
64551;BME280;50945;44.472;-123.352;2023-05-16T10:21:04;100743.94;;;12.13;76.60
64551;BME280;50945;44.472;-123.352;2023-05-16T10:23:32;100744.97;;;12.12;76.24
64551;BME280;50945;44.472;-123.352;2023-05-16T10:26:02;100738.84;;;12.10;76.48
64551;BME280;50945;44.472;-123.352;2023-05-16T10:28:29;100737.50;;;12.06;76.55
64551;BME280;50945;44.472;-123.352;2023-05-16T10:30:56;100733.91;;;12.06;76.69
64551;BME280;50945;44.472;-123.352;2023-05-16T10:33:22;100742.47;;;12.03;84.41
64551;BME280;50945;44.472;-123.352;2023-05-16T10:35:49;100750.03;;;12.01;76.49
64551;BME280;50945;44.472;-123.352;2023-05-16T10:38:17;100746.28;;;12.02;76.43
64551;BME280;50945;44.472;-123.352;2023-05-16T10:40:44;100753.25;;;12.04;76.29
64551;BME280;50945;44.472;-123.352;2023-05-16T10:43:22;100749.00;;;12.02;76.87
64551;BME280;50945;44.472;-123.352;2023-05-16T10:45:55;100748.34;;;12.00;76.37
64551;BME280;50945;44.472;-123.352;2023-05-16T10:48:29;100749.72;;;11.95;76.97
64551;BME280;50945;44.472;-123.352;2023-05-16T10:50:55;100749.25;;;11.92;76.34
64551;BME280;50945;44.472;-123.352;2023-05-16T10:53:29;100753.38;;;11.88;76.68
64551;BME280;50945;44.472;-123.352;2023-05-16T10:58:40;100745.72;;;11.83;78.31
64551;BME280;50945;44.472;-123.352;2023-05-16T11:01:30;100738.88;;;11.79;78.39
64551;BME280;50945;44.472;-123.352;2023-05-16T11:09:06;100754.16;;;11.73;76.53
64551;BME280;50945;44.472;-123.352;2023-05-16T11:17:14;100754.47;;;11.55;76.93
64551;BME280;50945;44.472;-123.352;2023-05-16T11:19:44;100752.28;;;11.51;77.42
64551;BME280;50945;44.472;-123.352;2023-05-16T11:22:21;100756.91;;;11.50;77.15
64551;BME280;50945;44.472;-123.352;2023-05-16T11:29:49;100744.72;;;11.53;77.27
64551;BME280;50945;44.472;-123.352;2023-05-16T11:32:18;100757.38;;;11.54;77.31
64551;BME280;50945;44.472;-123.352;2023-05-16T11:34:46;100753.63;;;11.55;77.21
64551;BME280;50945;44.472;-123.352;2023-05-16T11:37:13;100760.78;;;11.56;77.14
64551;BME280;50945;44.472;-123.352;2023-05-16T11:39:40;100754.47;;;11.55;77.32
64551;BME280;50945;44.472;-123.352;2023-05-16T11:42:07;100754.00;;;11.52;77.32
64551;BME280;50945;44.472;-123.352;2023-05-16T11:44:34;100744.22;;;11.49;77.44
64551;BME280;50945;44.472;-123.352;2023-05-16T11:47:00;100749.91;;;11.48;77.58
64551;BME280;50945;44.472;-123.352;2023-05-16T11:49:27;100742.06;;;11.45;77.92
64551;BME280;50945;44.472;-123.352;2023-05-16T11:51:54;100750.09;;;11.46;78.46
64551;BME280;50945;44.472;-123.352;2023-05-16T11:54:23;100746.13;;;11.49;78.12
64551;BME280;50945;44.472;-123.352;2023-05-16T11:56:50;100744.94;;;11.51;77.39
64551;BME280;50945;44.472;-123.352;2023-05-16T11:59:17;100750.41;;;11.51;78.11
64551;BME280;50945;44.472;-123.352;2023-05-16T12:01:43;100751.06;;;11.53;77.61
64551;BME280;50945;44.472;-123.352;2023-05-16T12:04:11;100752.56;;;11.56;77.70
64551;BME280;50945;44.472;-123.352;2023-05-16T12:06:37;100752.75;;;11.54;77.51
64551;BME280;50945;44.472;-123.352;2023-05-16T12:09:04;100755.19;;;11.49;77.47
64551;BME280;50945;44.472;-123.352;2023-05-16T12:11:38;100751.47;;;11.42;77.26
64551;BME280;50945;44.472;-123.352;2023-05-16T12:14:05;100754.94;;;11.36;77.73
64551;BME280;50945;44.472;-123.352;2023-05-16T12:16:32;100759.91;;;11.32;77.53
64551;BME280;50945;44.472;-123.352;2023-05-16T12:19:00;100759.91;;;11.32;77.73
64551;BME280;50945;44.472;-123.352;2023-05-16T12:21:32;100761.59;;;11.33;77.84
64551;BME280;50945;44.472;-123.352;2023-05-16T12:23:58;100777.00;;;11.34;77.50
64551;BME280;50945;44.472;-123.352;2023-05-16T12:26:32;100781.16;;;11.30;78.24
64551;BME280;50945;44.472;-123.352;2023-05-16T12:29:00;100789.72;;;11.27;77.76
64551;BME280;50945;44.472;-123.352;2023-05-16T12:31:29;100797.44;;;11.23;78.40
64551;BME280;50945;44.472;-123.352;2023-05-16T12:33:56;100787.88;;;11.19;78.44
64551;BME280;50945;44.472;-123.352;2023-05-16T12:36:24;100787.56;;;11.14;78.22
64551;BME280;50945;44.472;-123.352;2023-05-16T12:38:52;100798.84;;;11.11;79.01
64551;BME280;50945;44.472;-123.352;2023-05-16T12:41:18;100788.25;;;11.08;78.58
64551;BME280;50945;44.472;-123.352;2023-05-16T12:43:47;100801.59;;;11.11;78.81
64551;BME280;50945;44.472;-123.352;2023-05-16T12:46:13;100793.53;;;11.10;78.59
64551;BME280;50945;44.472;-123.352;2023-05-16T12:48:40;100807.22;;;11.10;78.60
64551;BME280;50945;44.472;-123.352;2023-05-16T12:51:13;100800.06;;;11.09;79.00
64551;BME280;50945;44.472;-123.352;2023-05-16T12:53:45;100804.84;;;11.07;78.59